createdAt,value
2023-05-20T00:00:03.299Z,1016.74
2023-05-20T00:01:03.281Z,1016.80
2023-05-20T00:02:03.282Z,1016.81
2023-05-20T00:03:03.307Z,1016.79
2023-05-20T00:04:03.494Z,1016.79
2023-05-20T00:05:03.311Z,1016.77
2023-05-20T00:06:03.242Z,1016.76
2023-05-20T00:07:03.205Z,1016.75
2023-05-20T00:08:03.180Z,1016.81
2023-05-20T00:09:03.179Z,1016.76
2023-05-20T00:10:03.169Z,1016.77
2023-05-20T00:11:03.151Z,1016.77
2023-05-20T00:12:03.176Z,1016.74
2023-05-20T00:13:03.182Z,1016.74
2023-05-20T00:14:03.113Z,1016.75
2023-05-20T00:15:03.140Z,1016.72
2023-05-20T00:16:03.139Z,1016.71
2023-05-20T00:17:03.164Z,1016.71
2023-05-20T00:18:03.104Z,1016.72
2023-05-20T00:19:03.080Z,1016.70
2023-05-20T00:20:03.191Z,1016.75
2023-05-20T00:21:03.036Z,1016.70
2023-05-20T00:22:03.120Z,1016.73
2023-05-20T00:23:03.007Z,1016.71
2023-05-20T00:24:03.011Z,1016.72
2023-05-20T00:25:03.162Z,1016.69
2023-05-20T00:26:02.998Z,1016.68
2023-05-20T00:27:02.966Z,1016.73
2023-05-20T00:28:02.960Z,1016.69
2023-05-20T00:29:03.037Z,1016.72
2023-05-20T00:30:03.129Z,1016.68
2023-05-20T00:31:02.936Z,1016.71
2023-05-20T00:32:02.999Z,1016.68
2023-05-20T00:33:02.953Z,1016.67
2023-05-20T00:34:02.911Z,1016.68
2023-05-20T00:35:02.946Z,1016.66
2023-05-20T00:36:02.952Z,1016.62
2023-05-20T00:37:02.906Z,1016.65
2023-05-20T00:38:02.854Z,1016.67
2023-05-20T00:39:02.838Z,1016.67
2023-05-20T00:40:02.901Z,1016.62
2023-05-20T00:41:02.848Z,1016.66
2023-05-20T00:42:02.796Z,1016.70
2023-05-20T00:43:02.800Z,1016.66
2023-05-20T00:44:02.786Z,1016.66
2023-05-20T00:45:02.770Z,1016.65
2023-05-20T00:46:02.837Z,1016.63
2023-05-20T00:47:02.781Z,1016.67
2023-05-20T00:48:02.774Z,1016.61
2023-05-20T00:49:02.725Z,1016.65
2023-05-20T00:50:02.752Z,1016.63
2023-05-20T00:51:02.707Z,1016.71
2023-05-20T00:52:02.720Z,1016.67
2023-05-20T00:53:02.714Z,1016.69
2023-05-20T00:54:02.672Z,1016.70
2023-05-20T00:55:02.656Z,1016.66
2023-05-20T00:56:02.651Z,1016.70
2023-05-20T00:57:02.704Z,1016.70
2023-05-20T00:58:02.633Z,1016.72
2023-05-20T00:59:02.615Z,1016.70
2023-05-20T01:00:02.645Z,1016.75
2023-05-20T01:01:02.652Z,1016.71
2023-05-20T01:02:02.595Z,1016.70
2023-05-20T01:03:02.676Z,1016.73
2023-05-20T01:04:02.598Z,1016.65
2023-05-20T01:05:02.578Z,1016.65
2023-05-20T01:06:02.654Z,1016.66
2023-05-20T01:07:02.535Z,1016.64
2023-05-20T01:08:02.528Z,1016.68
2023-05-20T01:09:02.511Z,1016.70
2023-05-20T01:10:02.543Z,1016.65
2023-05-20T01:11:02.532Z,1016.61
2023-05-20T01:12:02.502Z,1016.61
2023-05-20T01:13:02.485Z,1016.63
2023-05-20T01:14:02.462Z,1016.61
2023-05-20T01:15:02.457Z,1016.65
2023-05-20T01:16:02.503Z,1016.68
2023-05-20T01:17:02.423Z,1016.68
2023-05-20T01:18:02.517Z,1016.71
2023-05-20T01:19:02.503Z,1016.68
2023-05-20T01:20:02.424Z,1016.70
2023-05-20T01:21:02.391Z,1016.68
2023-05-20T01:22:02.376Z,1016.71
2023-05-20T01:23:02.347Z,1016.68
2023-05-20T01:24:02.370Z,1016.67
2023-05-20T01:25:02.421Z,1016.63
2023-05-20T01:26:02.376Z,1016.59
2023-05-20T01:27:02.308Z,1016.67
2023-05-20T01:28:02.292Z,1016.65
2023-05-20T01:29:02.290Z,1016.63
2023-05-20T01:30:02.368Z,1016.64
2023-05-20T01:31:02.327Z,1016.65
2023-05-20T01:32:02.263Z,1016.57
2023-05-20T01:33:02.322Z,1016.57
2023-05-20T01:34:02.239Z,1016.60
2023-05-20T01:35:02.224Z,1016.60
2023-05-20T01:36:02.272Z,1016.57
2023-05-20T01:37:02.202Z,1016.56
2023-05-20T01:38:02.202Z,1016.55
2023-05-20T01:39:02.234Z,1016.56
2023-05-20T01:40:02.172Z,1016.54
2023-05-20T01:41:02.184Z,1016.58
2023-05-20T01:42:02.186Z,1016.55
2023-05-20T01:43:02.130Z,1016.57
2023-05-20T01:44:02.135Z,1016.54
2023-05-20T01:45:02.117Z,1016.59
2023-05-20T01:46:02.153Z,1016.62
2023-05-20T01:47:02.112Z,1016.59
2023-05-20T01:48:02.267Z,1016.57
2023-05-20T01:49:02.063Z,1016.54
2023-05-20T01:50:02.129Z,1016.55
2023-05-20T01:51:02.053Z,1016.54
2023-05-20T01:52:02.053Z,1016.53
2023-05-20T01:53:02.032Z,1016.50
2023-05-20T01:54:02.035Z,1016.51
2023-05-20T01:55:02.005Z,1016.47
2023-05-20T01:56:01.994Z,1016.55
2023-05-20T01:57:02.014Z,1016.45
2023-05-20T01:58:02.041Z,1016.46
2023-05-20T01:59:02.036Z,1016.44
2023-05-20T02:00:02.003Z,1016.44
2023-05-20T02:01:02.000Z,1016.41
2023-05-20T02:02:01.973Z,1016.42
2023-05-20T02:03:01.937Z,1016.39
2023-05-20T02:04:01.937Z,1016.43
2023-05-20T02:05:01.886Z,1016.42
2023-05-20T02:06:01.926Z,1016.43
2023-05-20T02:07:01.857Z,1016.42
2023-05-20T02:08:01.967Z,1016.41
2023-05-20T02:09:01.846Z,1016.45
2023-05-20T02:10:01.856Z,1016.46
2023-05-20T02:11:01.826Z,1016.44
2023-05-20T02:12:01.827Z,1016.45
2023-05-20T02:13:01.829Z,1016.46
2023-05-20T02:14:01.834Z,1016.46
2023-05-20T02:15:01.775Z,1016.46
2023-05-20T02:16:01.803Z,1016.47
2023-05-20T02:17:01.769Z,1016.47
2023-05-20T02:18:01.864Z,1016.52
2023-05-20T02:19:01.764Z,1016.47
2023-05-20T02:20:01.878Z,1016.47
2023-05-20T02:21:01.721Z,1016.47
2023-05-20T02:22:01.717Z,1016.50
2023-05-20T02:23:01.705Z,1016.46
2023-05-20T02:24:01.739Z,1016.41
2023-05-20T02:25:01.759Z,1016.43
2023-05-20T02:26:01.681Z,1016.44
2023-05-20T02:27:01.661Z,1016.46
2023-05-20T02:28:01.677Z,1016.48
2023-05-20T02:29:01.743Z,1016.50
2023-05-20T02:30:01.628Z,1016.49
2023-05-20T02:31:01.609Z,1016.52
2023-05-20T02:32:01.601Z,1016.51
2023-05-20T02:33:01.665Z,1016.50
2023-05-20T02:34:01.656Z,1016.51
2023-05-20T02:35:01.571Z,1016.54
2023-05-20T02:36:01.625Z,1016.56
2023-05-20T02:37:01.545Z,1016.52
2023-05-20T02:38:01.551Z,1016.51
2023-05-20T02:39:01.607Z,1016.48
2023-05-20T02:40:01.601Z,1016.49
2023-05-20T02:41:01.495Z,1016.53
2023-05-20T02:42:01.532Z,1016.45
2023-05-20T02:43:01.498Z,1016.45
2023-05-20T02:44:01.469Z,1016.43
2023-05-20T02:45:01.507Z,1016.46
2023-05-20T02:46:01.531Z,1016.43
2023-05-20T02:47:01.428Z,1016.41
2023-05-20T02:48:01.491Z,1016.44
2023-05-20T02:49:01.421Z,1016.36
2023-05-20T02:50:01.406Z,1016.40
2023-05-20T02:51:01.412Z,1016.40
2023-05-20T02:52:01.377Z,1016.40
2023-05-20T02:53:01.363Z,1016.44
2023-05-20T02:54:01.360Z,1016.40
2023-05-20T02:55:01.467Z,1016.39
2023-05-20T02:56:01.340Z,1016.36
2023-05-20T02:57:01.315Z,1016.36
2023-05-20T02:58:01.326Z,1016.27
2023-05-20T02:59:01.303Z,1016.30
2023-05-20T03:00:01.330Z,1016.30
2023-05-20T03:01:01.319Z,1016.32
2023-05-20T03:02:01.382Z,1016.30
2023-05-20T03:03:01.297Z,1016.36
2023-05-20T03:04:01.331Z,1016.33
2023-05-20T03:05:01.292Z,1016.35
2023-05-20T03:06:01.229Z,1016.34
2023-05-20T03:07:01.277Z,1016.31
2023-05-20T03:08:01.211Z,1016.29
2023-05-20T03:09:01.200Z,1016.35
2023-05-20T03:10:01.196Z,1016.31
2023-05-20T03:11:01.219Z,1016.28
2023-05-20T03:12:01.226Z,1016.34
2023-05-20T03:13:01.203Z,1016.32
2023-05-20T03:14:01.161Z,1016.35
2023-05-20T03:15:01.161Z,1016.33
2023-05-20T03:16:01.192Z,1016.30
2023-05-20T03:17:01.117Z,1016.32
2023-05-20T03:18:01.167Z,1016.34
2023-05-20T03:19:01.136Z,1016.34
2023-05-20T03:20:01.071Z,1016.33
2023-05-20T03:21:01.229Z,1016.36
2023-05-20T03:22:01.159Z,1016.36
2023-05-20T03:23:01.129Z,1016.37
2023-05-20T03:24:01.024Z,1016.39
2023-05-20T03:25:01.361Z,1016.34
2023-05-20T03:26:01.010Z,1016.42
2023-05-20T03:27:01.155Z,1016.41
2023-05-20T03:28:01.046Z,1016.39
2023-05-20T03:29:00.991Z,1016.35
2023-05-20T03:30:00.971Z,1016.42
2023-05-20T03:31:01.025Z,1016.39
2023-05-20T03:32:00.965Z,1016.41
2023-05-20T03:33:00.956Z,1016.40
2023-05-20T03:34:00.926Z,1016.36
2023-05-20T03:35:00.912Z,1016.43
2023-05-20T03:36:00.959Z,1016.35
2023-05-20T03:37:00.992Z,1016.36
2023-05-20T03:38:00.874Z,1016.34
2023-05-20T03:39:00.869Z,1016.30
2023-05-20T03:40:00.874Z,1016.32
2023-05-20T03:41:00.852Z,1016.32
2023-05-20T03:42:00.826Z,1016.32
2023-05-20T03:43:00.856Z,1016.33
2023-05-20T03:44:00.817Z,1016.28
2023-05-20T03:45:00.806Z,1016.27
2023-05-20T03:46:00.776Z,1016.26
2023-05-20T03:47:00.947Z,1016.24
2023-05-20T03:48:00.853Z,1016.21
2023-05-20T03:49:00.757Z,1016.23
2023-05-20T03:50:00.803Z,1016.23
2023-05-20T03:51:00.752Z,1016.19
2023-05-20T03:52:00.718Z,1016.18
2023-05-20T03:53:00.725Z,1016.22
2023-05-20T03:54:00.698Z,1016.21
2023-05-20T03:55:00.874Z,1016.21
2023-05-20T03:56:00.679Z,1016.25
2023-05-20T03:57:00.686Z,1016.20
2023-05-20T03:58:00.700Z,1016.25
2023-05-20T03:59:00.649Z,1016.25
2023-05-20T04:00:00.644Z,1016.21
2023-05-20T04:01:00.631Z,1016.27
2023-05-20T04:02:00.673Z,1016.26
2023-05-20T04:03:00.804Z,1016.23
2023-05-20T04:04:00.659Z,1016.23
2023-05-20T04:05:00.584Z,1016.22
2023-05-20T04:06:00.619Z,1016.22
2023-05-20T04:07:00.590Z,1016.18
2023-05-20T04:08:00.548Z,1016.20
2023-05-20T04:09:00.659Z,1016.19
2023-05-20T04:10:00.528Z,1016.17
2023-05-20T04:11:00.523Z,1016.18
2023-05-20T04:12:00.560Z,1016.19
2023-05-20T04:13:00.550Z,1016.16
2023-05-20T04:14:00.536Z,1016.16
2023-05-20T04:15:00.497Z,1016.19
2023-05-20T04:16:00.533Z,1016.16
2023-05-20T04:17:00.546Z,1016.10
2023-05-20T04:18:00.464Z,1016.14
2023-05-20T04:19:00.484Z,1016.18
2023-05-20T04:20:00.474Z,1016.17
2023-05-20T04:21:00.408Z,1016.17
2023-05-20T04:22:00.446Z,1016.18
2023-05-20T04:23:00.387Z,1016.20
2023-05-20T04:24:00.425Z,1016.21
2023-05-20T04:25:00.380Z,1016.20
2023-05-20T04:26:00.345Z,1016.22
2023-05-20T04:27:00.337Z,1016.24
2023-05-20T04:28:00.347Z,1016.26
2023-05-20T04:29:00.394Z,1016.24
2023-05-20T04:30:00.298Z,1016.26
2023-05-20T04:31:00.307Z,1016.25
2023-05-20T04:32:00.316Z,1016.27
2023-05-20T04:33:00.332Z,1016.27
2023-05-20T04:34:00.299Z,1016.24
2023-05-20T04:35:00.300Z,1016.30
2023-05-20T04:36:00.239Z,1016.26
2023-05-20T04:37:00.244Z,1016.25
2023-05-20T04:38:00.210Z,1016.22
2023-05-20T04:39:00.213Z,1016.25
2023-05-20T04:40:00.240Z,1016.23
2023-05-20T04:41:00.231Z,1016.25
2023-05-20T04:42:00.167Z,1016.28
2023-05-20T04:43:00.183Z,1016.31
2023-05-20T04:44:00.194Z,1016.35
2023-05-20T04:45:00.162Z,1016.32
2023-05-20T04:46:00.748Z,1016.32
2023-05-20T04:47:00.157Z,1016.28
2023-05-20T04:48:00.195Z,1016.23
2023-05-20T04:49:00.150Z,1016.29
2023-05-20T04:50:00.138Z,1016.28
2023-05-20T04:51:00.143Z,1016.26
2023-05-20T04:52:00.079Z,1016.28
2023-05-20T04:53:00.061Z,1016.29
2023-05-20T04:54:00.130Z,1016.23
2023-05-20T04:55:00.044Z,1016.27
2023-05-20T04:56:00.042Z,1016.27
2023-05-20T04:57:00.012Z,1016.28
2023-05-20T04:57:59.991Z,1016.34
2023-05-20T04:58:59.991Z,1016.27
2023-05-20T05:00:00.051Z,1016.30
2023-05-20T05:00:59.963Z,1016.27
2023-05-20T05:01:59.999Z,1016.26
2023-05-20T05:03:00.044Z,1016.28
2023-05-20T05:03:59.940Z,1016.25
2023-05-20T05:04:59.931Z,1016.30
2023-05-20T05:05:59.974Z,1016.19
2023-05-20T05:06:59.902Z,1016.27
2023-05-20T05:07:59.886Z,1016.25
2023-05-20T05:08:59.872Z,1016.21
2023-05-20T05:09:59.871Z,1016.18
2023-05-20T05:11:00.001Z,1016.22
2023-05-20T05:11:59.868Z,1016.22
2023-05-20T05:12:59.833Z,1016.22
2023-05-20T05:13:59.827Z,1016.23
2023-05-20T05:14:59.830Z,1016.12
2023-05-20T05:16:00.113Z,1016.14
2023-05-20T05:16:59.794Z,1016.07
2023-05-20T05:17:59.847Z,1016.07
2023-05-20T05:18:59.840Z,1016.08
2023-05-20T05:19:59.751Z,1016.14
2023-05-20T05:20:59.741Z,1016.12
2023-05-20T05:21:59.768Z,1016.12
2023-05-20T05:22:59.735Z,1016.04
2023-05-20T05:23:59.720Z,1016.11
2023-05-20T05:24:59.766Z,1016.12
2023-05-20T05:25:59.724Z,1016.12
2023-05-20T05:26:59.723Z,1016.13
2023-05-20T05:27:59.676Z,1016.12
2023-05-20T05:28:59.660Z,1016.08
2023-05-20T05:29:59.646Z,1016.15
2023-05-20T05:30:59.690Z,1016.09
2023-05-20T05:31:59.660Z,1016.18
2023-05-20T05:32:59.815Z,1016.13
2023-05-20T05:33:59.625Z,1016.15
2023-05-20T05:34:59.596Z,1016.02
2023-05-20T05:35:59.647Z,1016.08
2023-05-20T05:36:59.593Z,1016.07
2023-05-20T05:37:59.593Z,1016.03
2023-05-20T05:38:59.554Z,1016.06
2023-05-20T05:39:59.794Z,1016.05
2023-05-20T05:40:59.535Z,1016.06
2023-05-20T05:41:59.551Z,1016.08
2023-05-20T05:42:59.557Z,1016.09
2023-05-20T05:43:59.490Z,1016.10
2023-05-20T05:44:59.481Z,1016.08
2023-05-20T05:45:59.466Z,1016.08
2023-05-20T05:47:01.103Z,1016.11
2023-05-20T05:47:59.472Z,1016.14
2023-05-20T05:48:59.476Z,1016.13
2023-05-20T05:49:59.428Z,1016.07
2023-05-20T05:50:59.423Z,1016.08
2023-05-20T05:51:59.491Z,1016.03
2023-05-20T05:52:59.401Z,1016.05
2023-05-20T05:53:59.387Z,1015.99
2023-05-20T05:54:59.920Z,1015.88
2023-05-20T05:55:59.379Z,1015.95
2023-05-20T05:57:00.261Z,1015.93
2023-05-20T05:57:59.380Z,1015.95
2023-05-20T05:58:59.348Z,1015.96
2023-05-20T05:59:59.325Z,1015.83
2023-05-20T06:00:59.364Z,1015.96
2023-05-20T06:01:59.353Z,1015.89
2023-05-20T06:02:59.377Z,1016.02
2023-05-20T06:03:59.388Z,1015.94
2023-05-20T06:04:59.271Z,1015.97
2023-05-20T06:05:59.256Z,1016.00
2023-05-20T06:06:59.302Z,1016.05
2023-05-20T06:07:59.236Z,1015.88
2023-05-20T06:08:59.221Z,1016.03
2023-05-20T06:09:59.214Z,1016.03
2023-05-20T06:10:59.197Z,1015.98
2023-05-20T06:12:00.307Z,1015.95
2023-05-20T06:12:59.185Z,1016.02
2023-05-20T06:13:59.178Z,1015.98
2023-05-20T06:14:59.195Z,1015.94
2023-05-20T06:15:59.192Z,1015.98
2023-05-20T06:16:59.140Z,1015.96
2023-05-20T06:17:59.180Z,1015.98
2023-05-20T06:19:00.265Z,1015.82
2023-05-20T06:19:59.124Z,1015.98
2023-05-20T06:20:59.129Z,1015.92
2023-05-20T06:21:59.449Z,1015.93
2023-05-20T06:22:59.081Z,1015.95
2023-05-20T06:23:59.091Z,1015.95
2023-05-20T06:24:59.041Z,1015.95
2023-05-20T06:25:59.087Z,1016.01
2023-05-20T06:26:59.020Z,1015.95
2023-05-20T06:27:59.019Z,1015.82
2023-05-20T06:28:59.031Z,1015.90
2023-05-20T06:29:58.985Z,1015.91
2023-05-20T06:30:59.008Z,1015.92
2023-05-20T06:31:59.024Z,1015.80
2023-05-20T06:32:58.994Z,1015.81
2023-05-20T06:33:59.231Z,1015.84
2023-05-20T06:34:58.941Z,1015.78
2023-05-20T06:35:58.926Z,1015.92
2023-05-20T06:36:58.911Z,1015.84
2023-05-20T06:37:58.988Z,1015.88
2023-05-20T06:38:58.891Z,1015.88
2023-05-20T06:39:58.934Z,1015.88
2023-05-20T06:40:58.885Z,1015.83
2023-05-20T06:41:58.856Z,1015.79
2023-05-20T06:42:58.861Z,1015.77
2023-05-20T06:43:58.889Z,1015.77
2023-05-20T06:44:58.849Z,1015.77
2023-05-20T06:45:58.947Z,1015.77
2023-05-20T06:46:58.826Z,1015.77
2023-05-20T06:47:58.836Z,1015.73
2023-05-20T06:48:58.795Z,1015.66
2023-05-20T06:49:58.764Z,1015.74
2023-05-20T06:50:58.794Z,1015.69
2023-05-20T06:51:58.997Z,1015.73
2023-05-20T06:52:58.754Z,1015.73
2023-05-20T06:53:58.730Z,1015.75
2023-05-20T06:54:58.723Z,1015.79
2023-05-20T06:55:58.712Z,1015.82
2023-05-20T06:56:58.758Z,1015.80
2023-05-20T06:57:58.694Z,1015.80
2023-05-20T06:58:58.685Z,1015.84
2023-05-20T06:59:58.700Z,1015.78
2023-05-20T07:00:58.659Z,1015.70
2023-05-20T07:01:58.690Z,1015.65
2023-05-20T07:02:58.681Z,1015.62
2023-05-20T07:03:58.682Z,1015.74
2023-05-20T07:04:58.632Z,1015.69
2023-05-20T07:05:58.611Z,1015.72
2023-05-20T07:06:58.594Z,1015.73
2023-05-20T07:07:58.595Z,1015.67
2023-05-20T07:08:58.630Z,1015.65
2023-05-20T07:09:58.572Z,1015.60
2023-05-20T07:10:58.554Z,1015.71
2023-05-20T07:11:58.538Z,1015.69
2023-05-20T07:12:58.538Z,1015.73
2023-05-20T07:13:58.545Z,1015.73
2023-05-20T07:14:58.617Z,1015.74
2023-05-20T07:15:58.538Z,1015.73
2023-05-20T07:16:58.482Z,1015.78
2023-05-20T07:17:58.504Z,1015.76
2023-05-20T07:18:58.517Z,1015.74
2023-05-20T07:19:58.444Z,1015.72
2023-05-20T07:20:58.431Z,1015.68
2023-05-20T07:21:58.475Z,1015.69
2023-05-20T07:22:58.457Z,1015.71
2023-05-20T07:23:58.401Z,1015.71
2023-05-20T07:24:58.619Z,1015.73
2023-05-20T07:25:58.380Z,1015.66
2023-05-20T07:26:58.403Z,1015.72
2023-05-20T07:27:58.369Z,1015.76
2023-05-20T07:28:58.376Z,1015.78
2023-05-20T07:29:58.396Z,1015.73
2023-05-20T07:30:58.333Z,1015.73
2023-05-20T07:31:58.418Z,1015.74
2023-05-20T07:32:58.459Z,1015.75
2023-05-20T07:33:58.299Z,1015.67
2023-05-20T07:34:58.340Z,1015.71
2023-05-20T07:35:58.327Z,1015.66
2023-05-20T07:36:58.260Z,1015.68
2023-05-20T07:37:58.260Z,1015.69
2023-05-20T07:39:03.938Z,1015.65
2023-05-20T07:39:59.241Z,1015.67
2023-05-20T07:40:58.267Z,1015.64
2023-05-20T07:41:58.225Z,1015.63
2023-05-20T07:42:58.201Z,1015.55
2023-05-20T07:43:58.217Z,1015.59
2023-05-20T07:44:58.192Z,1015.60
2023-05-20T07:45:58.340Z,1015.65
2023-05-20T07:46:58.172Z,1015.56
2023-05-20T07:47:58.221Z,1015.53
2023-05-20T07:48:58.137Z,1015.54
2023-05-20T07:49:58.146Z,1015.63
2023-05-20T07:50:58.128Z,1015.60
2023-05-20T07:51:58.199Z,1015.55
2023-05-20T07:52:58.120Z,1015.63
2023-05-20T07:53:58.133Z,1015.49
2023-05-20T07:54:58.104Z,1015.44
2023-05-20T07:55:58.057Z,1015.61
2023-05-20T07:56:58.132Z,1015.68
2023-05-20T07:57:58.043Z,1015.64
2023-05-20T07:58:58.024Z,1015.66
2023-05-20T07:59:58.024Z,1015.66
2023-05-20T08:00:58.169Z,1015.67
2023-05-20T08:01:58.111Z,1015.66
2023-05-20T08:02:58.114Z,1015.62
2023-05-20T08:03:58.075Z,1015.60
2023-05-20T08:04:58.016Z,1015.60
2023-05-20T08:05:57.961Z,1015.66
2023-05-20T08:06:58.019Z,1015.68
2023-05-20T08:07:57.979Z,1015.70
2023-05-20T08:08:57.933Z,1015.70
2023-05-20T08:09:57.903Z,1015.66
2023-05-20T08:10:57.896Z,1015.65
2023-05-20T08:11:57.927Z,1015.65
2023-05-20T08:12:57.940Z,1015.65
2023-05-20T08:13:57.908Z,1015.68
2023-05-20T08:14:57.848Z,1015.64
2023-05-20T08:15:57.840Z,1015.66
2023-05-20T08:16:57.951Z,1015.63
2023-05-20T08:17:57.845Z,1015.66
2023-05-20T08:18:57.852Z,1015.61
2023-05-20T08:19:57.796Z,1015.66
2023-05-20T08:20:57.781Z,1015.65
2023-05-20T08:21:57.925Z,1015.64
2023-05-20T08:22:57.769Z,1015.65
2023-05-20T08:23:57.756Z,1015.66
2023-05-20T08:24:57.740Z,1015.72
2023-05-20T08:25:57.793Z,1015.71
2023-05-20T08:26:57.820Z,1015.62
2023-05-20T08:27:57.714Z,1015.60
2023-05-20T08:28:57.707Z,1015.66
2023-05-20T08:29:59.967Z,1015.64
2023-05-20T08:30:57.719Z,1015.63
2023-05-20T08:31:57.708Z,1015.59
2023-05-20T08:32:57.778Z,1015.65
2023-05-20T08:33:57.642Z,1015.58
2023-05-20T08:34:57.629Z,1015.66
2023-05-20T08:35:57.656Z,1015.64
2023-05-20T08:36:57.597Z,1015.60
2023-05-20T08:37:57.627Z,1015.58
2023-05-20T08:38:57.641Z,1015.55
2023-05-20T08:39:57.586Z,1015.59
2023-05-20T08:40:57.633Z,1015.50
2023-05-20T08:41:57.556Z,1015.61
2023-05-20T08:42:57.542Z,1015.59
2023-05-20T08:43:57.603Z,1015.49
2023-05-20T08:44:57.526Z,1015.57
2023-05-20T08:45:57.551Z,1015.62
2023-05-20T08:46:57.671Z,1015.58
2023-05-20T08:47:57.540Z,1015.57
2023-05-20T08:48:58.161Z,1015.56
2023-05-20T08:49:57.467Z,1015.58
2023-05-20T08:50:57.487Z,1015.52
2023-05-20T08:51:57.455Z,1015.55
2023-05-20T08:52:57.434Z,1015.58
2023-05-20T08:53:57.472Z,1015.51
2023-05-20T08:54:57.419Z,1015.56
2023-05-20T08:56:00.163Z,1015.52
2023-05-20T08:56:57.402Z,1015.63
2023-05-20T08:57:57.414Z,1015.60
2023-05-20T08:58:57.497Z,1015.57
2023-05-20T08:59:57.408Z,1015.58
2023-05-20T09:00:57.349Z,1015.62
2023-05-20T09:01:57.438Z,1015.58
2023-05-20T09:03:00.138Z,1015.58
2023-05-20T09:03:57.346Z,1015.63
2023-05-20T09:04:57.433Z,1015.59
2023-05-20T09:05:57.304Z,1015.62
2023-05-20T09:06:57.303Z,1015.65
2023-05-20T09:07:57.279Z,1015.64
2023-05-20T09:08:57.290Z,1015.63
2023-05-20T09:09:57.255Z,1015.58
2023-05-20T09:10:57.244Z,1015.54
2023-05-20T09:11:57.598Z,1015.44
2023-05-20T09:12:57.224Z,1015.66
2023-05-20T09:13:57.263Z,1015.52
2023-05-20T09:14:57.202Z,1015.59
2023-05-20T09:15:57.373Z,1015.57
2023-05-20T09:16:57.409Z,1015.53
2023-05-20T09:17:57.215Z,1015.52
2023-05-20T09:18:57.286Z,1015.55
2023-05-20T09:19:57.157Z,1015.55
2023-05-20T09:20:57.130Z,1015.53
2023-05-20T09:21:57.547Z,1015.55
2023-05-20T09:22:57.117Z,1015.52
2023-05-20T09:23:57.104Z,1015.57
2023-05-20T09:24:57.101Z,1015.48
2023-05-20T09:25:57.114Z,1015.52
2023-05-20T09:26:57.064Z,1015.56
2023-05-20T09:27:57.072Z,1015.56
2023-05-20T09:28:57.051Z,1015.54
2023-05-20T09:29:57.049Z,1015.52
2023-05-20T09:30:57.044Z,1015.50
2023-05-20T09:31:57.155Z,1015.55
2023-05-20T09:32:57.069Z,1015.50
2023-05-20T09:33:57.035Z,1015.54
2023-05-20T09:34:56.992Z,1015.58
2023-05-20T09:35:56.971Z,1015.56
2023-05-20T09:36:56.952Z,1015.52
2023-05-20T09:37:56.999Z,1015.50
2023-05-20T09:38:56.957Z,1015.53
2023-05-20T09:39:58.172Z,1015.54
2023-05-20T09:40:57.077Z,1015.54
2023-05-20T09:41:56.940Z,1015.51
2023-05-20T09:42:56.889Z,1015.46
2023-05-20T09:43:56.889Z,1015.52
2023-05-20T09:44:56.875Z,1015.49
2023-05-20T09:45:56.949Z,1015.44
2023-05-20T09:46:56.889Z,1015.46
2023-05-20T09:47:57.051Z,1015.46
2023-05-20T09:48:56.831Z,1015.48
2023-05-20T09:49:56.859Z,1015.52
2023-05-20T09:50:56.800Z,1015.47
2023-05-20T09:51:57.242Z,1015.50
2023-05-20T09:52:56.904Z,1015.49
2023-05-20T09:53:56.772Z,1015.41
2023-05-20T09:54:56.762Z,1015.48
2023-05-20T09:55:56.756Z,1015.44
2023-05-20T09:56:56.737Z,1015.52
2023-05-20T09:57:56.876Z,1015.43
2023-05-20T09:58:56.739Z,1015.43
2023-05-20T09:59:56.710Z,1015.42
2023-05-20T10:00:56.695Z,1015.46
2023-05-20T10:01:56.765Z,1015.45
2023-05-20T10:02:56.918Z,1015.46
2023-05-20T10:03:56.751Z,1015.48
2023-05-20T10:04:56.654Z,1015.40
2023-05-20T10:05:56.641Z,1015.36
2023-05-20T10:06:56.633Z,1015.36
2023-05-20T10:07:56.676Z,1015.33
2023-05-20T10:08:57.514Z,1015.29
2023-05-20T10:09:56.593Z,1015.30
2023-05-20T10:10:56.584Z,1015.31
2023-05-20T10:11:56.589Z,1015.26
2023-05-20T10:12:56.616Z,1015.31
2023-05-20T10:13:56.557Z,1015.29
2023-05-20T10:14:56.563Z,1015.24
2023-05-20T10:15:56.588Z,1015.27
2023-05-20T10:16:56.650Z,1015.31
2023-05-20T10:17:56.586Z,1015.34
2023-05-20T10:18:56.657Z,1015.34
2023-05-20T10:19:56.493Z,1015.26
2023-05-20T10:20:56.493Z,1015.28
2023-05-20T10:21:56.495Z,1015.31
2023-05-20T10:22:56.569Z,1015.23
2023-05-20T10:23:56.454Z,1015.24
2023-05-20T10:24:56.455Z,1015.24
2023-05-20T10:25:56.450Z,1015.22
2023-05-20T10:26:56.416Z,1015.21
2023-05-20T10:27:56.460Z,1015.22
2023-05-20T10:28:56.396Z,1015.15
2023-05-20T10:29:56.416Z,1015.10
2023-05-20T10:30:56.376Z,1015.10
2023-05-20T10:31:56.405Z,1015.08
2023-05-20T10:32:58.438Z,1015.07
2023-05-20T10:33:56.366Z,1015.01
2023-05-20T10:34:56.315Z,1015.08
2023-05-20T10:35:56.315Z,1015.05
2023-05-20T10:36:56.292Z,1015.02
2023-05-20T10:37:56.302Z,1015.02
2023-05-20T10:38:56.317Z,1015.02
2023-05-20T10:39:56.293Z,1015.06
2023-05-20T10:40:56.262Z,1014.93
2023-05-20T10:41:56.266Z,1014.92
2023-05-20T10:42:56.283Z,1014.90
2023-05-20T10:43:56.236Z,1014.85
2023-05-20T10:44:56.217Z,1014.80
2023-05-20T10:45:56.233Z,1014.82
2023-05-20T10:47:56.261Z,1014.92
2023-05-20T10:48:56.374Z,1014.86
2023-05-20T10:49:56.249Z,1014.82
2023-05-20T10:50:56.152Z,1014.87
2023-05-20T10:51:56.142Z,1014.90
2023-05-20T10:52:56.125Z,1014.83
2023-05-20T10:53:56.286Z,1014.80
2023-05-20T10:54:56.105Z,1014.87
2023-05-20T10:55:56.099Z,1014.81
2023-05-20T10:56:56.089Z,1014.83
2023-05-20T10:57:56.087Z,1014.77
2023-05-20T10:58:56.112Z,1014.78
2023-05-20T10:59:56.058Z,1014.80
2023-05-20T11:00:56.219Z,1014.69
2023-05-20T11:01:56.034Z,1014.72
2023-05-20T11:02:56.106Z,1014.67
2023-05-20T11:03:56.160Z,1014.67
2023-05-20T11:04:56.032Z,1014.55
2023-05-20T11:05:55.999Z,1014.64
2023-05-20T11:06:56.141Z,1014.62
2023-05-20T11:07:56.013Z,1014.60
2023-05-20T11:08:55.994Z,1014.57
2023-05-20T11:10:04.638Z,1014.62
2023-05-20T11:10:55.936Z,1014.55
2023-05-20T11:11:55.935Z,1014.60
2023-05-20T11:12:56.025Z,1014.54
2023-05-20T11:13:55.918Z,1014.50
2023-05-20T11:14:55.901Z,1014.57
2023-05-20T11:15:55.921Z,1014.49
2023-05-20T11:16:55.882Z,1014.59
2023-05-20T11:17:55.874Z,1014.52
2023-05-20T11:18:55.872Z,1014.55
2023-05-20T11:19:55.844Z,1014.58
2023-05-20T11:20:55.871Z,1014.52
2023-05-20T11:21:55.832Z,1014.52
2023-05-20T11:22:55.830Z,1014.60
2023-05-20T11:23:55.825Z,1014.55
2023-05-20T11:24:55.833Z,1014.59
2023-05-20T11:25:55.795Z,1014.56
2023-05-20T11:26:55.763Z,1014.57
2023-05-20T11:27:55.758Z,1014.53
2023-05-20T11:28:55.743Z,1014.53
2023-05-20T11:29:55.734Z,1014.55
2023-05-20T11:30:55.745Z,1014.49
2023-05-20T11:31:55.778Z,1014.52
2023-05-20T11:32:55.818Z,1014.52
2023-05-20T11:33:55.688Z,1014.50
2023-05-20T11:34:55.778Z,1014.47
2023-05-20T11:35:55.668Z,1014.47
2023-05-20T11:36:55.662Z,1014.42
2023-05-20T11:37:55.649Z,1014.50
2023-05-20T11:38:55.730Z,1014.47
2023-05-20T11:39:55.853Z,1014.43
2023-05-20T11:40:55.781Z,1014.38
2023-05-20T11:41:55.610Z,1014.45
2023-05-20T11:42:55.909Z,1014.39
2023-05-20T11:43:55.580Z,1014.33
2023-05-20T11:44:55.572Z,1014.35
2023-05-20T11:45:55.582Z,1014.31
2023-05-20T11:46:55.536Z,1014.32
2023-05-20T11:47:55.594Z,1014.31
2023-05-20T11:48:55.546Z,1014.32
2023-05-20T11:49:55.537Z,1014.24
2023-05-20T11:50:55.502Z,1014.22
2023-05-20T11:51:55.519Z,1014.17
2023-05-20T11:52:55.529Z,1014.17
2023-05-20T11:53:55.467Z,1014.18
2023-05-20T11:54:55.470Z,1014.22
2023-05-20T11:55:55.444Z,1014.18
2023-05-20T11:56:55.439Z,1014.16
2023-05-20T11:57:55.464Z,1014.12
2023-05-20T11:58:55.428Z,1014.16
2023-05-20T11:59:55.393Z,1014.11
2023-05-20T12:01:05.170Z,1014.07
2023-05-20T12:01:56.392Z,1014.05
2023-05-20T12:02:55.463Z,1013.98
2023-05-20T12:03:55.485Z,1013.98
2023-05-20T12:04:55.407Z,1014.00
2023-05-20T12:05:55.341Z,1013.98